createdAt,value
2023-08-02T00:01:35.715Z,98071.75
2023-08-02T00:04:10.876Z,98065.81
2023-08-02T00:06:38.331Z,98061.25
2023-08-02T00:09:05.708Z,98039.84
2023-08-02T00:11:32.774Z,98032.81
2023-08-02T00:14:00.862Z,98042.56
2023-08-02T00:16:28.386Z,98037.88
2023-08-02T00:18:55.838Z,98034.38
2023-08-02T00:21:24.107Z,98030.53
2023-08-02T00:23:51.749Z,98032.97
2023-08-02T00:26:18.499Z,98036.44
2023-08-02T00:28:46.324Z,98038.03
2023-08-02T00:31:15.503Z,98038.75
2023-08-02T00:33:42.911Z,98040.44
2023-08-02T00:36:13.721Z,98043.34
2023-08-02T00:38:41.555Z,98043.34
2023-08-02T00:41:09.389Z,98032.53
2023-08-02T00:43:40.956Z,98028.53
2023-08-02T00:46:09.639Z,98015.81
2023-08-02T00:48:38.978Z,97982.94
2023-08-02T00:51:07.154Z,97969.81
2023-08-02T00:53:35.431Z,97982.38
2023-08-02T00:56:03.715Z,97993.19
2023-08-02T00:58:31.101Z,97990.13
2023-08-02T01:01:01.132Z,97961.69
2023-08-02T01:03:28.717Z,97942.19
2023-08-02T01:06:04.210Z,97939.28
2023-08-02T01:08:37.398Z,97938.50
2023-08-02T01:11:09.834Z,97931.19
2023-08-02T01:13:40.704Z,97917.63
2023-08-02T01:16:08.752Z,97935.72
2023-08-02T01:18:35.488Z,97922.94
2023-08-02T01:21:03.772Z,97910.94
2023-08-02T01:23:31.262Z,97914.53
2023-08-02T01:26:01.507Z,97909.63
2023-08-02T01:28:31.604Z,97912.50
2023-08-02T01:31:00.885Z,97909.44
2023-08-02T01:33:29.227Z,97892.38
2023-08-02T01:35:57.163Z,97892.28
2023-08-02T01:38:25.389Z,97880.22
2023-08-02T01:40:52.544Z,97868.34
2023-08-02T01:43:20.002Z,97863.25
2023-08-02T01:45:47.770Z,97851.78
2023-08-02T01:48:14.614Z,97848.53
2023-08-02T01:50:42.232Z,97837.50
2023-08-02T01:53:09.676Z,97824.81
2023-08-02T01:55:38.551Z,97817.16
2023-08-02T01:58:06.084Z,97816.03
2023-08-02T02:00:33.650Z,97799.69
2023-08-02T02:03:01.949Z,97796.75
2023-08-02T02:05:28.730Z,97791.09
2023-08-02T02:07:55.666Z,97787.22
2023-08-02T02:10:24.163Z,97793.97
2023-08-02T02:12:52.982Z,97790.13
2023-08-02T02:15:20.252Z,97777.97
2023-08-02T02:17:47.610Z,97767.78
2023-08-02T02:20:15.170Z,97751.06
2023-08-02T02:22:42.852Z,97737.88
2023-08-02T02:25:10.143Z,97718.59
2023-08-02T02:27:37.402Z,97706.94
2023-08-02T02:30:07.014Z,97704.19
2023-08-02T02:32:34.659Z,97696.53
2023-08-02T02:35:01.446Z,97674.78
2023-08-02T02:37:28.634Z,97677.72
2023-08-02T02:39:56.212Z,97667.66
2023-08-02T02:42:22.976Z,97667.50
2023-08-02T02:44:50.292Z,97656.06
2023-08-02T02:47:18.543Z,97642.56
2023-08-02T02:49:46.051Z,97644.44
2023-08-02T02:52:13.661Z,97621.38
2023-08-02T02:54:41.331Z,97606.56
2023-08-02T02:57:08.771Z,97601.66
2023-08-02T02:59:36.275Z,97598.50
2023-08-02T03:02:03.247Z,97595.53
2023-08-02T03:04:32.088Z,97577.94
2023-08-02T03:06:59.643Z,97573.75
2023-08-02T03:09:27.226Z,97577.13
2023-08-02T03:11:54.699Z,97559.38
2023-08-02T03:14:22.006Z,97556.81
2023-08-02T03:16:49.446Z,97542.63
2023-08-02T03:19:16.884Z,97537.41
2023-08-02T03:21:45.787Z,97531.75
2023-08-02T03:24:13.328Z,97533.75
2023-08-02T03:26:40.310Z,97522.16
2023-08-02T03:29:07.292Z,97517.28
2023-08-02T03:31:34.717Z,97514.53
2023-08-02T03:34:01.899Z,97500.34
2023-08-02T03:36:29.944Z,97489.47
2023-08-02T03:38:59.272Z,97490.28
2023-08-02T03:41:26.637Z,97487.53
2023-08-02T03:43:53.937Z,97480.09
2023-08-02T03:46:20.741Z,97479.59
2023-08-02T03:48:47.936Z,97468.47
2023-08-02T03:51:15.394Z,97472.34
2023-08-02T03:53:42.721Z,97456.63
2023-08-02T03:56:10.918Z,97452.19
2023-08-02T03:58:38.230Z,97447.75
2023-08-02T04:01:05.637Z,97442.00
2023-08-02T04:03:32.922Z,97446.22
2023-08-02T04:06:00.367Z,97430.94
2023-08-02T04:08:28.202Z,97438.25
2023-08-02T04:10:54.975Z,97430.63
2023-08-02T04:13:23.729Z,97426.81
2023-08-02T04:15:52.783Z,97418.16
2023-08-02T04:18:20.113Z,97411.81
2023-08-02T04:20:47.517Z,97408.13
2023-08-02T04:23:15.015Z,97408.13
2023-08-02T04:25:42.661Z,97401.78
2023-08-02T04:28:13.107Z,97404.09
2023-08-02T04:30:41.875Z,97394.41
2023-08-02T04:33:09.364Z,97389.72
2023-08-02T04:35:36.739Z,97393.41
2023-08-02T04:38:04.090Z,97390.81
2023-08-02T04:40:31.356Z,97387.38
2023-08-02T04:42:58.936Z,97392.78
2023-08-02T04:45:25.642Z,97380.63
2023-08-02T04:47:54.430Z,97372.53
2023-08-02T04:50:22.095Z,97370.38
2023-08-02T04:52:49.409Z,97373.94
2023-08-02T04:55:16.930Z,97356.53
2023-08-02T04:57:44.529Z,97357.09
2023-08-02T05:00:12.590Z,97360.47
2023-08-02T05:02:39.855Z,97354.84
2023-08-02T05:05:10.597Z,97348.63
2023-08-02T05:07:41.033Z,97346.13
2023-08-02T05:10:09.637Z,97342.97
2023-08-02T05:12:40.382Z,97341.75
2023-08-02T05:15:08.913Z,97333.94
2023-08-02T05:17:36.275Z,97338.25
2023-08-02T05:20:03.937Z,97339.88
2023-08-02T05:22:32.924Z,97335.47
2023-08-02T05:25:00.228Z,97342.34
2023-08-02T05:27:27.993Z,97335.09
2023-08-02T05:29:55.221Z,97317.22
2023-08-02T05:32:22.593Z,97328.09
2023-08-02T05:34:50.284Z,97323.25
2023-08-02T05:37:17.609Z,97310.88
2023-08-02T05:39:46.172Z,97312.66
2023-08-02T05:42:13.939Z,97307.66
2023-08-02T05:44:41.364Z,97309.78
2023-08-02T05:47:08.673Z,97307.81
2023-08-02T05:49:36.233Z,97295.03
2023-08-02T05:52:03.072Z,97310.22
2023-08-02T05:54:30.476Z,97296.94
2023-08-02T05:56:59.690Z,97306.53
2023-08-02T05:59:29.496Z,97299.38
2023-08-02T06:01:56.685Z,97306.25
2023-08-02T06:04:24.304Z,97306.25
2023-08-02T06:06:51.644Z,97300.72
2023-08-02T06:09:19.036Z,97297.97
2023-08-02T06:11:45.785Z,97296.66
2023-08-02T06:14:14.488Z,97295.56
2023-08-02T06:16:42.224Z,97291.63
2023-08-02T06:19:10.244Z,97289.03
2023-08-02T06:21:37.298Z,97281.72
2023-08-02T06:24:04.735Z,97280.44
2023-08-02T06:26:32.366Z,97281.38
2023-08-02T06:28:59.274Z,97269.56
2023-08-02T06:31:27.777Z,97277.97
2023-08-02T06:33:55.144Z,97293.88
2023-08-02T06:36:24.137Z,97292.75
2023-08-02T06:38:50.879Z,97285.59
2023-08-02T06:41:17.592Z,97288.69
2023-08-02T06:43:44.797Z,97294.69
2023-08-02T06:46:12.588Z,97293.03
2023-08-02T06:48:41.175Z,97295.44
2023-08-02T06:51:12.242Z,97294.00
2023-08-02T06:53:39.007Z,97284.31
2023-08-02T06:56:11.227Z,97288.38
2023-08-02T06:58:37.882Z,97287.19
2023-08-02T07:01:13.090Z,97285.81
2023-08-02T07:03:42.122Z,97278.00
2023-08-02T07:06:09.846Z,97274.41
2023-08-02T07:08:37.994Z,97282.03
2023-08-02T07:11:04.902Z,97284.63
2023-08-02T07:13:32.721Z,97289.31
2023-08-02T07:15:59.548Z,97287.69
2023-08-02T07:18:27.073Z,97281.81
2023-08-02T07:20:55.884Z,97281.13
2023-08-02T07:23:23.905Z,97277.13
2023-08-02T07:25:50.922Z,97281.59
2023-08-02T07:28:19.151Z,97273.47
2023-08-02T07:30:46.211Z,97278.59
2023-08-02T07:33:13.347Z,97280.50
2023-08-02T07:35:40.082Z,97279.94
2023-08-02T07:38:09.116Z,97271.81
2023-08-02T07:40:36.691Z,97267.50
2023-08-02T07:43:03.387Z,97266.28
2023-08-02T07:45:33.466Z,97279.28
2023-08-02T07:48:01.257Z,97278.13
2023-08-02T07:50:28.389Z,97274.91
2023-08-02T07:52:55.075Z,97267.59
2023-08-02T07:55:23.158Z,97270.44
2023-08-02T07:57:51.548Z,97273.75
2023-08-02T08:00:19.255Z,97266.41
2023-08-02T08:02:46.584Z,97276.16
2023-08-02T08:05:14.162Z,97267.22
2023-08-02T08:07:42.529Z,97271.31
2023-08-02T08:10:10.527Z,97266.16
2023-08-02T08:12:38.796Z,97274.22
2023-08-02T08:15:07.862Z,97273.31
2023-08-02T08:17:35.034Z,97275.16
2023-08-02T08:20:06.359Z,97274.03
2023-08-02T08:22:33.081Z,97279.78
2023-08-02T08:24:59.898Z,97282.22
2023-08-02T08:27:27.319Z,97280.19
2023-08-02T08:29:56.499Z,97283.13
2023-08-02T08:32:24.012Z,97280.03
2023-08-02T08:34:51.871Z,97277.75
2023-08-02T08:37:19.146Z,97273.06
2023-08-02T08:39:49.382Z,97280.22
2023-08-02T08:42:19.266Z,97279.59
2023-08-02T08:44:47.702Z,97270.63
2023-08-02T08:47:18.844Z,97280.69
2023-08-02T08:49:48.419Z,97270.72
2023-08-02T08:52:17.080Z,97282.47
2023-08-02T08:54:44.852Z,97283.00
2023-08-02T08:57:13.139Z,97275.47
2023-08-02T08:59:40.632Z,97273.84
2023-08-02T09:02:09.500Z,97279.81
2023-08-02T09:04:37.819Z,97275.38
2023-08-02T09:07:05.907Z,97278.09
2023-08-02T09:09:33.496Z,97272.84
2023-08-02T09:12:01.120Z,97279.81
2023-08-02T09:14:28.422Z,97270.25
2023-08-02T09:16:57.685Z,97272.34
2023-08-02T09:19:26.666Z,97272.06
2023-08-02T09:22:08.525Z,97269.13
2023-08-02T09:24:36.138Z,97276.75
2023-08-02T09:27:03.473Z,97276.63
2023-08-02T09:29:44.684Z,97278.13
2023-08-02T09:32:11.599Z,97277.47
2023-08-02T09:34:46.433Z,97275.50
2023-08-02T09:37:16.427Z,97280.63
2023-08-02T09:39:50.625Z,97274.06
2023-08-02T09:42:18.094Z,97276.31
2023-08-02T09:44:53.347Z,97276.47
2023-08-02T09:47:22.180Z,97281.56
2023-08-02T09:50:09.260Z,97275.41
2023-08-02T09:52:39.320Z,97271.25
2023-08-02T09:55:07.226Z,97276.22
2023-08-02T09:57:34.335Z,97264.47
2023-08-02T10:00:04.324Z,97264.28
2023-08-02T10:02:31.998Z,97270.28
2023-08-02T10:05:01.079Z,97277.97
2023-08-02T10:07:32.846Z,97276.16
2023-08-02T10:10:06.198Z,97263.56
2023-08-02T10:12:35.099Z,97275.75
2023-08-02T10:15:02.680Z,97274.66
2023-08-02T10:17:31.295Z,97270.66
2023-08-02T10:19:59.355Z,97280.53
2023-08-02T10:22:27.071Z,97276.28
2023-08-02T10:24:53.968Z,97274.34
2023-08-02T10:27:23.371Z,97277.06
2023-08-02T10:29:51.520Z,97279.75
2023-08-02T10:32:19.795Z,97279.31
2023-08-02T10:34:48.249Z,97284.06
2023-08-02T10:37:16.569Z,97277.16
2023-08-02T10:39:53.446Z,97283.63
2023-08-02T10:42:22.409Z,97284.38
2023-08-02T10:45:15.210Z,97287.63
2023-08-02T10:47:42.567Z,97288.66
2023-08-02T10:50:53.416Z,97287.38
2023-08-02T10:53:20.722Z,97290.03
2023-08-02T10:56:04.839Z,97293.00
2023-08-02T10:58:52.955Z,97294.09
2023-08-02T11:01:20.725Z,97297.66
2023-08-02T11:03:47.984Z,97289.06
2023-08-02T11:06:29.783Z,97299.28
2023-08-02T11:08:57.766Z,97298.16
2023-08-02T11:11:32.875Z,97293.59
2023-08-02T11:14:01.032Z,97298.78
2023-08-02T11:16:36.318Z,97302.09
2023-08-02T11:19:08.960Z,97293.47
2023-08-02T11:21:36.615Z,97303.56
2023-08-02T11:24:04.382Z,97300.81
2023-08-02T11:29:10.178Z,97294.59
2023-08-02T11:31:37.628Z,97293.63
2023-08-02T11:34:05.363Z,97300.28
2023-08-02T11:36:33.939Z,97295.59
2023-08-02T11:39:01.293Z,97293.56
2023-08-02T11:41:28.746Z,97296.75
2023-08-02T11:43:56.022Z,97294.50
2023-08-02T11:46:25.119Z,97297.63
2023-08-02T11:48:52.530Z,97297.91
2023-08-02T11:51:21.792Z,97298.56
2023-08-02T11:53:53.891Z,97299.50
2023-08-02T11:56:22.170Z,97306.69
2023-08-02T11:58:51.392Z,97299.53
2023-08-02T12:01:19.563Z,97300.69
2023-08-02T12:04:00.487Z,97305.28
2023-08-02T12:06:28.725Z,97300.06
2023-08-02T12:08:58.708Z,97310.44
2023-08-02T12:11:27.242Z,97307.69
2023-08-02T12:13:54.477Z,97309.72
2023-08-02T12:16:21.328Z,97312.16
2023-08-02T12:18:54.176Z,97313.09
2023-08-02T12:21:23.224Z,97314.22
2023-08-02T12:23:50.946Z,97316.53
2023-08-02T12:26:31.202Z,97314.19
2023-08-02T12:28:58.745Z,97315.06
2023-08-02T12:31:25.868Z,97318.09
2023-08-02T12:33:52.943Z,97320.56
2023-08-02T12:36:29.255Z,97316.31
2023-08-02T12:38:58.721Z,97320.28
2023-08-02T12:41:26.194Z,97318.84
2023-08-02T12:43:54.149Z,97322.59
2023-08-02T12:46:21.863Z,97318.50
2023-08-02T12:48:49.999Z,97313.81
2023-08-02T12:51:18.041Z,97318.59
2023-08-02T12:53:46.479Z,97325.28
2023-08-02T12:56:13.258Z,97326.81
2023-08-02T12:58:39.990Z,97324.47
2023-08-02T13:01:06.995Z,97316.75
2023-08-02T13:03:34.861Z,97316.50
2023-08-02T13:06:01.766Z,97322.50
2023-08-02T13:08:31.043Z,97322.41
2023-08-02T13:10:59.234Z,97317.47
2023-08-02T13:13:25.984Z,97322.88
2023-08-02T13:15:53.257Z,97320.06
2023-08-02T13:18:20.147Z,97330.31
2023-08-02T13:20:46.903Z,97324.38
2023-08-02T13:23:13.787Z,97329.31
2023-08-02T13:25:40.564Z,97319.28
2023-08-02T13:28:08.774Z,97316.75
2023-08-02T13:30:35.732Z,97315.50
2023-08-02T13:33:02.932Z,97313.97
2023-08-02T13:35:29.816Z,97320.06
2023-08-02T13:37:56.718Z,97320.97
2023-08-02T13:40:23.498Z,97331.13
2023-08-02T13:42:50.243Z,97329.16
2023-08-02T13:45:18.587Z,97327.53
2023-08-02T13:47:45.340Z,97334.63
2023-08-02T13:50:12.183Z,97338.84
2023-08-02T13:52:39.069Z,97338.47
2023-08-02T13:55:07.057Z,97340.09
2023-08-02T13:57:33.887Z,97343.94
2023-08-02T14:00:00.841Z,97339.00
2023-08-02T14:02:29.080Z,97342.69
2023-08-02T14:04:55.950Z,97343.25
2023-08-02T14:07:22.945Z,97352.41
2023-08-02T14:09:49.763Z,97361.50
2023-08-02T14:12:16.928Z,97361.41
2023-08-02T14:14:44.501Z,97356.09
2023-08-02T14:17:11.458Z,97357.19
2023-08-02T14:19:39.650Z,97361.00
2023-08-02T14:22:06.545Z,97365.88
2023-08-02T14:24:33.337Z,97369.28
2023-08-02T14:27:00.315Z,97367.47
2023-08-02T14:29:27.156Z,97373.25
2023-08-02T14:31:53.950Z,97378.91
2023-08-02T14:34:20.830Z,97374.66
2023-08-02T14:36:49.052Z,97375.34
2023-08-02T14:39:15.826Z,97388.25
2023-08-02T14:41:42.804Z,97381.38
2023-08-02T14:44:09.566Z,97380.34
2023-08-02T14:46:36.454Z,97383.66
2023-08-02T14:49:03.438Z,97381.16
2023-08-02T14:51:30.261Z,97396.16
2023-08-02T14:54:11.392Z,97392.91
2023-08-02T14:56:41.224Z,97384.19
2023-08-02T14:59:08.430Z,97390.50
2023-08-02T15:01:35.190Z,97404.84
2023-08-02T15:04:02.384Z,97397.28
2023-08-02T15:06:29.267Z,97394.47
2023-08-02T15:08:56.118Z,97397.34
2023-08-02T15:11:24.388Z,97397.66
2023-08-02T15:13:51.233Z,97402.84
2023-08-02T15:16:17.977Z,97414.84
2023-08-02T15:18:45.170Z,97419.38
2023-08-02T15:21:12.189Z,97420.59
2023-08-02T15:23:39.052Z,97424.00
2023-08-02T15:26:05.864Z,97433.38
2023-08-02T15:28:34.117Z,97441.25
2023-08-02T15:31:00.934Z,97433.06
2023-08-02T15:33:27.919Z,97453.84
2023-08-02T15:35:54.816Z,97454.38
2023-08-02T15:38:22.817Z,97463.66
2023-08-02T15:40:55.164Z,97456.84
2023-08-02T15:43:22.024Z,97464.59
2023-08-02T15:45:50.113Z,97467.81
2023-08-02T15:48:17.062Z,97472.78
2023-08-02T15:50:45.287Z,97479.13
2023-08-02T15:53:12.029Z,97480.31
2023-08-02T15:55:38.860Z,97484.75
2023-08-02T15:58:05.664Z,97487.63
2023-08-02T16:00:32.804Z,97492.63
2023-08-02T16:03:01.214Z,97508.28
2023-08-02T16:05:28.168Z,97491.13
2023-08-02T16:07:55.877Z,97502.38
2023-08-02T16:10:22.606Z,97510.31
2023-08-02T16:12:50.464Z,97507.72
2023-08-02T16:15:17.218Z,97512.50
2023-08-02T16:17:44.658Z,97512.34
2023-08-02T16:20:13.159Z,97527.91
2023-08-02T16:22:40.733Z,97535.81
2023-08-02T16:25:08.089Z,97537.75
2023-08-02T16:27:35.589Z,97545.47
2023-08-02T16:30:02.414Z,97552.06
2023-08-02T16:32:29.722Z,97559.84
2023-08-02T16:34:56.732Z,97562.22
2023-08-02T16:37:25.730Z,97558.94
2023-08-02T16:39:53.414Z,97568.31
2023-08-02T16:42:20.151Z,97572.22
2023-08-02T16:44:50.290Z,97576.56
2023-08-02T16:47:17.916Z,97585.63
2023-08-02T16:49:45.283Z,97583.47
2023-08-02T16:52:13.382Z,97581.97
2023-08-02T16:54:42.391Z,97588.25
2023-08-02T16:57:09.113Z,97604.19
2023-08-02T16:59:36.566Z,97600.72
2023-08-02T17:02:03.891Z,97604.56
2023-08-02T17:04:31.259Z,97604.75
2023-08-02T17:06:58.461Z,97616.56
2023-08-02T17:09:25.223Z,97617.16
2023-08-02T17:11:53.943Z,97616.16
2023-08-02T17:14:22.094Z,97630.00
2023-08-02T17:16:49.552Z,97631.81
2023-08-02T17:19:17.299Z,97648.97
2023-08-02T17:21:47.630Z,97646.88
2023-08-02T17:24:15.717Z,97659.69
2023-08-02T17:26:42.519Z,97665.53
2023-08-02T17:29:11.449Z,97663.47
2023-08-02T17:31:38.969Z,97679.28
2023-08-02T17:34:06.939Z,97677.47
2023-08-02T17:36:34.557Z,97679.09
2023-08-02T17:39:02.038Z,97694.75
2023-08-02T17:41:29.768Z,97687.75
2023-08-02T17:43:56.668Z,97701.59
2023-08-02T17:46:26.444Z,97703.38
2023-08-02T17:48:53.596Z,97716.75
2023-08-02T17:51:21.029Z,97724.81
2023-08-02T17:53:48.749Z,97738.31
2023-08-02T17:56:15.551Z,97733.41
2023-08-02T17:58:42.332Z,97749.75
2023-08-02T18:01:11.217Z,97753.59
2023-08-02T18:03:41.934Z,97761.03
2023-08-02T18:06:10.958Z,97762.69
2023-08-02T18:08:37.941Z,97774.56
2023-08-02T18:11:05.036Z,97773.53
2023-08-02T18:13:32.615Z,97780.09
2023-08-02T18:16:00.072Z,97789.69
2023-08-02T18:18:27.667Z,97800.44
2023-08-02T18:20:56.406Z,97798.63
2023-08-02T18:23:23.326Z,97801.97
2023-08-02T18:25:50.547Z,97811.22
2023-08-02T18:28:20.585Z,97816.03
2023-08-02T18:30:56.169Z,97831.53
2023-08-02T18:33:22.882Z,97830.19
2023-08-02T18:35:50.490Z,97841.78
2023-08-02T18:38:19.834Z,97837.44
2023-08-02T18:40:47.087Z,97852.66
2023-08-02T18:43:14.055Z,97856.66
2023-08-02T18:45:40.976Z,97865.97
2023-08-02T18:48:08.507Z,97865.97
2023-08-02T18:50:35.308Z,97870.53
2023-08-02T18:53:02.017Z,97880.13
2023-08-02T18:55:33.954Z,97897.50
2023-08-02T18:58:01.781Z,97899.91
2023-08-02T19:00:29.495Z,97905.94
2023-08-02T19:02:57.494Z,97916.31
2023-08-02T19:05:24.280Z,97916.75
2023-08-02T19:07:51.024Z,97922.84
2023-08-02T19:10:18.080Z,97931.97
2023-08-02T19:12:46.192Z,97943.41
2023-08-02T19:15:16.224Z,97943.84
2023-08-02T19:17:43.148Z,97958.81
2023-08-02T19:20:12.647Z,97954.69
2023-08-02T19:22:39.569Z,97963.06
2023-08-02T19:25:07.811Z,97970.78
2023-08-02T19:27:34.597Z,97983.13
2023-08-02T19:30:06.403Z,97990.31
2023-08-02T19:32:34.597Z,98001.91
2023-08-02T19:35:02.094Z,98002.50
2023-08-02T19:37:30.361Z,98001.91
2023-08-02T19:39:57.437Z,98009.50
2023-08-02T19:42:24.235Z,98006.50
2023-08-02T19:44:52.389Z,98018.72
2023-08-02T19:47:30.736Z,98020.97
2023-08-02T19:49:57.776Z,98018.19
2023-08-02T19:52:24.534Z,98024.78
2023-08-02T19:54:52.178Z,98038.97
2023-08-02T19:57:19.133Z,98039.72
2023-08-02T19:59:45.880Z,98051.66
2023-08-02T20:02:20.535Z,98059.88
2023-08-02T20:04:48.731Z,98069.78
2023-08-02T20:07:15.506Z,98079.00
2023-08-02T20:09:44.846Z,98079.63
2023-08-02T20:12:11.715Z,98078.19
2023-08-02T20:14:38.648Z,98085.00
2023-08-02T20:17:09.903Z,98088.63
2023-08-02T20:19:37.443Z,98094.56
2023-08-02T20:22:09.964Z,98108.53
2023-08-02T20:24:38.759Z,98117.44
2023-08-02T20:27:10.685Z,98116.69
2023-08-02T20:29:40.070Z,98125.25
2023-08-02T20:32:09.474Z,98129.19
2023-08-02T20:34:42.192Z,98132.47
2023-08-02T20:37:10.547Z,98151.69
2023-08-02T20:39:38.750Z,98153.00
2023-08-02T20:42:06.577Z,98163.06
2023-08-02T20:44:33.614Z,98169.72
2023-08-02T20:47:00.333Z,98183.25
2023-08-02T20:49:27.087Z,98185.66
2023-08-02T20:51:53.811Z,98189.91
2023-08-02T20:54:21.976Z,98204.00
2023-08-02T20:56:48.698Z,98207.28
2023-08-02T20:59:16.721Z,98199.16
2023-08-02T21:01:44.737Z,98207.59
2023-08-02T21:04:13.376Z,98222.31
2023-08-02T21:06:41.192Z,98226.28
2023-08-02T21:09:08.110Z,98222.50
2023-08-02T21:11:36.170Z,98224.13
2023-08-02T21:14:02.934Z,98229.13
2023-08-02T21:16:30.982Z,98239.94
2023-08-02T21:18:58.907Z,98249.72
2023-08-02T21:21:25.619Z,98252.34
2023-08-02T21:23:52.356Z,98255.03
2023-08-02T21:26:22.112Z,98265.16
2023-08-02T21:28:51.145Z,98265.06
2023-08-02T21:31:22.263Z,98271.03
2023-08-02T21:33:49.060Z,98272.78
2023-08-02T21:36:22.508Z,98286.50
2023-08-02T21:38:49.629Z,98290.88
2023-08-02T21:41:16.376Z,98294.28
2023-08-02T21:43:43.535Z,98302.56
2023-08-02T21:46:12.840Z,98306.25
2023-08-02T21:48:44.868Z,98312.53
2023-08-02T21:51:13.256Z,98317.91
2023-08-02T21:53:40.040Z,98318.78
2023-08-02T21:56:09.754Z,98330.69
2023-08-02T21:58:38.730Z,98333.22
2023-08-02T22:01:06.316Z,98344.81
2023-08-02T22:03:34.726Z,98347.41
2023-08-02T22:06:04.124Z,98352.66
2023-08-02T22:08:34.325Z,98360.03
2023-08-02T22:11:02.294Z,98370.94
2023-08-02T22:13:29.303Z,98371.03
2023-08-02T22:15:56.124Z,98387.38
2023-08-02T22:18:22.879Z,98388.66
2023-08-02T22:20:51.096Z,98396.41
2023-08-02T22:23:17.890Z,98400.75
2023-08-02T22:25:44.686Z,98401.16
2023-08-02T22:28:11.970Z,98411.31
2023-08-02T22:30:38.662Z,98419.88
2023-08-02T22:33:05.437Z,98419.56
2023-08-02T22:35:33.180Z,98424.72
2023-08-02T22:38:01.224Z,98429.06
2023-08-02T22:40:27.929Z,98438.47
2023-08-02T22:42:54.813Z,98433.47
2023-08-02T22:45:21.527Z,98435.09
2023-08-02T22:47:52.819Z,98441.06
2023-08-02T22:50:54.798Z,98447.81
2023-08-02T22:53:20.986Z,98443.59
2023-08-02T22:55:47.733Z,98458.31
2023-08-02T22:58:15.542Z,98452.66
2023-08-02T23:00:42.411Z,98458.63
2023-08-02T23:03:28.788Z,98465.72
2023-08-02T23:05:55.948Z,98468.19
2023-08-02T23:08:24.168Z,98471.28
2023-08-02T23:10:50.969Z,98479.09
2023-08-02T23:13:23.414Z,98485.09
2023-08-02T23:15:52.814Z,98483.88
2023-08-02T23:18:23.119Z,98500.41
2023-08-02T23:20:50.555Z,98491.72
2023-08-02T23:23:30.602Z,98502.03
2023-08-02T23:25:59.880Z,98511.75
2023-08-02T23:28:29.279Z,98513.03
2023-08-02T23:30:57.000Z,98520.81
2023-08-02T23:33:24.749Z,98531.88
2023-08-02T23:35:52.150Z,98525.56
2023-08-02T23:38:19.838Z,98535.34
2023-08-02T23:40:48.632Z,98542.00
2023-08-02T23:43:15.373Z,98542.53
2023-08-02T23:45:43.292Z,98548.00
2023-08-02T23:48:10.966Z,98553.31
2023-08-02T23:50:37.732Z,98558.69
2023-08-02T23:53:04.817Z,98556.28
2023-08-02T23:55:31.786Z,98564.31
2023-08-02T23:58:00.435Z,98564.06
